Time;durP1;ratioP1;P1;durP2;ratioP2;P2;SDS_P1;SDS_P2;PMS_P1;PMS_P2;Temp;Humidity;BMP_temperature;BMP_pressure;BME280_temperature;BME280_humidity;BME280_pressure;Samples;Min_cycle;Max_cycle;Signal;HPM_P1;HPM_P2
2024/02/05 00:00:06;;;;;;;9.73;5.07;;;6.90;99.90;;;;;;5036862;28;20021;-93
2024/02/05 00:02:32;;;;;;;6.35;4.00;;;6.90;99.90;;;;;;5003653;28;20036;-92
2024/02/05 00:04:57;;;;;;;6.35;3.63;;;6.90;99.90;;;;;;5019942;28;20029;-91
2024/02/05 00:07:23;;;;;;;6.55;4.10;;;6.90;99.90;;;;;;5020165;28;20059;-93
2024/02/05 00:09:49;;;;;;;6.57;4.15;;;6.90;99.90;;;;;;5038030;28;20025;-92
2024/02/05 00:12:16;;;;;;;5.90;3.58;;;6.90;99.90;;;;;;5036959;28;20017;-92
2024/02/05 00:14:42;;;;;;;5.70;4.07;;;6.90;99.90;;;;;;5019732;28;20060;-92
2024/02/05 00:17:07;;;;;;;6.82;3.78;;;6.90;99.90;;;;;;5036856;28;20026;-92
2024/02/05 00:19:33;;;;;;;6.97;3.63;;;6.90;99.90;;;;;;5038291;28;20064;-92
2024/02/05 00:21:59;;;;;;;8.07;3.58;;;6.90;99.90;;;;;;5019065;28;20105;-92
2024/02/05 00:24:24;;;;;;;6.28;4.55;;;6.80;99.90;;;;;;5037233;28;20553;-92
2024/02/05 00:26:50;;;;;;;6.53;4.47;;;6.80;99.90;;;;;;5036620;28;20032;-92
2024/02/05 00:29:15;;;;;;;8.57;3.90;;;6.90;99.90;;;;;;5018787;28;20463;-93
2024/02/05 00:31:41;;;;;;;5.35;3.65;;;6.80;99.90;;;;;;5036582;28;20163;-93
2024/02/05 00:34:07;;;;;;;6.50;5.05;;;6.80;99.90;;;;;;5036497;28;20052;-94
2024/02/05 00:36:33;;;;;;;5.80;3.78;;;6.80;99.90;;;;;;5020407;28;20039;-94
2024/02/05 00:38:59;;;;;;;7.28;4.53;;;6.80;99.90;;;;;;5036989;28;20044;-92
2024/02/05 00:41:24;;;;;;;9.10;5.35;;;6.80;99.90;;;;;;5036531;28;20022;-92
2024/02/05 00:43:50;;;;;;;7.85;4.75;;;6.80;99.90;;;;;;5036283;28;20479;-93
2024/02/05 00:46:26;;;;;;;11.23;4.18;;;6.70;99.90;;;;;;5020036;28;20029;-92
2024/02/05 00:48:55;;;;;;;5.95;4.45;;;6.80;99.90;;;;;;5037624;28;20041;-93
2024/02/05 00:51:21;;;;;;;8.88;4.05;;;6.80;99.90;;;;;;5018133;28;20022;-94
2024/02/05 00:53:47;;;;;;;10.05;4.78;;;6.70;99.90;;;;;;5037017;28;20028;-93
2024/02/05 00:56:13;;;;;;;6.10;3.88;;;6.70;99.90;;;;;;5018617;28;20507;-93
2024/02/05 00:58:39;;;;;;;7.55;5.03;;;6.70;99.90;;;;;;5036931;28;20026;-92
2024/02/05 01:01:05;;;;;;;7.10;4.55;;;6.70;99.90;;;;;;5035865;28;20032;-92
2024/02/05 01:03:32;;;;;;;6.88;4.97;;;6.80;99.90;;;;;;5037378;28;20026;-92
2024/02/05 01:05:58;;;;;;;12.15;4.30;;;6.80;99.90;;;;;;5019347;28;20022;-92
2024/02/05 01:08:23;;;;;;;6.82;4.60;;;6.80;99.90;;;;;;5028974;28;20056;-93
2024/02/05 01:10:49;;;;;;;7.38;4.40;;;6.80;99.90;;;;;;5036337;28;20025;-93
2024/02/05 01:13:14;;;;;;;8.77;4.63;;;6.80;99.90;;;;;;5037768;28;20036;-92
2024/02/05 01:15:41;;;;;;;8.07;3.90;;;6.80;99.90;;;;;;5036276;28;20040;-93
2024/02/05 01:18:06;;;;;;;9.07;4.32;;;6.80;99.90;;;;;;5035386;28;20040;-91
2024/02/05 01:20:32;;;;;;;6.07;4.32;;;6.80;99.90;;;;;;5036072;28;20033;-92
2024/02/05 01:22:58;;;;;;;7.38;3.95;;;6.80;99.90;;;;;;5018915;28;20037;-93
2024/02/05 01:25:23;;;;;;;7.13;4.22;;;6.80;99.90;;;;;;5018757;28;20120;-92
2024/02/05 01:27:49;;;;;;;6.18;4.68;;;6.80;99.90;;;;;;5037499;28;20610;-94
2024/02/05 01:30:15;;;;;;;5.72;3.58;;;6.80;99.90;;;;;;5036591;28;20036;-93
2024/02/05 01:32:41;;;;;;;6.97;4.50;;;6.80;99.90;;;;;;5018812;28;20026;-93
2024/02/05 01:35:07;;;;;;;6.45;4.28;;;6.80;99.90;;;;;;5036478;28;20033;-92
2024/02/05 01:37:33;;;;;;;6.50;4.05;;;6.80;99.90;;;;;;5035894;28;20531;-91
2024/02/05 01:39:59;;;;;;;8.55;3.30;;;6.80;99.90;;;;;;5036868;28;20040;-94
2024/02/05 01:42:24;;;;;;;6.38;3.83;;;6.80;99.90;;;;;;5036665;28;20032;-92
2024/02/05 01:44:51;;;;;;;8.65;4.55;;;6.80;99.90;;;;;;5036048;28;20087;-93
2024/02/05 01:47:17;;;;;;;7.03;3.47;;;6.80;99.90;;;;;;5036865;28;20030;-92
2024/02/05 01:49:45;;;;;;;7.43;4.55;;;6.80;99.90;;;;;;5036419;28;20026;-91
2024/02/05 01:52:14;;;;;;;9.48;3.75;;;6.80;99.90;;;;;;5018263;28;20049;-91
2024/02/05 01:54:41;;;;;;;11.07;5.30;;;6.80;99.90;;;;;;5037605;28;20025;-92
2024/02/05 01:57:10;;;;;;;4.82;4.32;;;6.80;99.90;;;;;;5036965;28;20507;-93
2024/02/05 01:59:37;;;;;;;9.02;5.00;;;6.80;99.90;;;;;;5037255;28;20138;-93
2024/02/05 02:02:04;;;;;;;8.35;3.38;;;6.80;99.90;;;;;;5036033;28;20029;-92
2024/02/05 02:04:29;;;;;;;5.95;3.50;;;6.80;99.90;;;;;;5038040;28;20666;-93
2024/02/05 02:06:55;;;;;;;6.40;3.63;;;6.90;99.90;;;;;;5040246;28;20053;-92
2024/02/05 02:09:22;;;;;;;5.80;3.88;;;6.90;99.90;;;;;;5021954;28;20044;-93
2024/02/05 02:11:48;;;;;;;8.00;4.95;;;6.90;99.90;;;;;;5039696;28;20017;-92
2024/02/05 02:14:14;;;;;;;6.00;4.28;;;6.90;99.90;;;;;;5040199;28;20740;-93
2024/02/05 02:16:40;;;;;;;5.80;3.60;;;6.90;99.90;;;;;;5039592;28;20033;-92
2024/02/05 02:19:41;;;;;;;9.13;4.00;;;6.90;99.90;;;;;;5040462;28;20030;-92
2024/02/05 02:22:31;;;;;;;6.90;3.97;;;6.90;99.90;;;;;;5011189;28;20037;-93
2024/02/05 02:24:58;;;;;;;6.88;4.28;;;6.90;99.90;;;;;;5040443;28;20021;-91
2024/02/05 02:27:23;;;;;;;6.03;3.13;;;6.90;99.90;;;;;;5041884;28;20033;-92
2024/02/05 02:29:50;;;;;;;8.32;3.55;;;6.90;99.90;;;;;;5044963;28;20029;-94
2024/02/05 02:32:59;;;;;;;5.38;3.78;;;7.00;99.90;;;;;;5047048;28;20048;-91
2024/02/05 02:35:31;;;;;;;6.15;3.28;;;7.00;99.90;;;;;;5033401;28;20473;-90
2024/02/05 02:38:08;;;;;;;5.10;3.42;;;7.00;99.90;;;;;;5040909;28;20094;-92
2024/02/05 02:40:36;;;;;;;5.50;3.50;;;7.00;99.90;;;;;;5039776;28;20025;-94
2024/02/05 02:43:05;;;;;;;5.15;2.75;;;7.00;99.90;;;;;;5039660;28;20073;-94
2024/02/05 02:45:32;;;;;;;4.22;2.53;;;7.00;99.90;;;;;;5040225;28;20033;-92
2024/02/05 02:47:58;;;;;;;4.97;2.90;;;7.00;99.90;;;;;;5041598;28;20107;-92
2024/02/05 02:50:24;;;;;;;5.18;3.00;;;7.00;99.90;;;;;;5022255;28;20022;-92
2024/02/05 02:52:49;;;;;;;7.43;2.97;;;7.10;99.90;;;;;;5040249;28;20531;-91
2024/02/05 02:55:15;;;;;;;5.50;3.00;;;7.10;99.90;;;;;;5039718;28;20022;-93
2024/02/05 02:57:41;;;;;;;5.20;2.83;;;7.10;99.90;;;;;;5039056;28;20467;-92
2024/02/05 03:00:09;;;;;;;6.53;2.75;;;7.10;99.90;;;;;;5040025;28;20029;-93
2024/02/05 03:02:35;;;;;;;4.13;2.75;;;7.10;99.90;;;;;;5039700;28;20504;-92
2024/02/05 03:05:02;;;;;;;3.90;2.55;;;7.20;99.90;;;;;;5040411;28;20025;-93
2024/02/05 03:07:28;;;;;;;5.57;2.22;;;7.10;99.90;;;;;;5027957;28;20017;-90
2024/02/05 03:09:55;;;;;;;6.05;3.45;;;7.10;99.90;;;;;;5022240;28;20132;-93
2024/02/05 03:12:20;;;;;;;6.07;3.17;;;7.10;99.90;;;;;;5039090;28;20032;-91
2024/02/05 03:14:46;;;;;;;4.38;2.83;;;7.20;99.90;;;;;;5039036;28;20021;-93
2024/02/05 03:17:11;;;;;;;4.95;2.88;;;7.10;99.90;;;;;;5039388;28;20025;-92
2024/02/05 03:19:37;;;;;;;5.13;2.97;;;7.10;99.90;;;;;;5038154;28;20702;-92
2024/02/05 03:22:03;;;;;;;5.03;2.50;;;7.10;99.90;;;;;;5038600;28;20086;-90
2024/02/05 03:24:29;;;;;;;7.65;3.95;;;7.10;99.90;;;;;;5038447;28;20030;-91
2024/02/05 03:26:54;;;;;;;5.60;3.45;;;7.10;99.90;;;;;;5038152;28;20530;-93
2024/02/05 03:29:20;;;;;;;8.38;3.38;;;7.20;99.90;;;;;;5038725;28;20040;-93
2024/02/05 03:31:46;;;;;;;4.90;3.85;;;7.10;99.90;;;;;;5037483;28;20121;-93
2024/02/05 03:34:11;;;;;;;4.85;3.22;;;7.10;99.90;;;;;;5020342;28;20029;-93
2024/02/05 03:36:37;;;;;;;5.72;3.70;;;7.10;99.90;;;;;;5038489;28;20030;-92
2024/02/05 03:39:03;;;;;;;5.15;3.65;;;7.10;99.90;;;;;;5038338;28;20057;-92
2024/02/05 03:41:29;;;;;;;5.43;3.45;;;7.10;99.90;;;;;;5037453;28;20049;-91
2024/02/05 03:43:55;;;;;;;6.65;3.88;;;7.10;99.90;;;;;;5038843;28;20032;-93
2024/02/05 03:46:20;;;;;;;8.05;3.72;;;7.10;99.90;;;;;;5038558;28;20460;-93
2024/02/05 03:48:53;;;;;;;7.07;4.72;;;7.10;99.90;;;;;;5039705;28;20032;-93
2024/02/05 03:51:20;;;;;;;7.13;3.20;;;7.10;99.90;;;;;;5020872;28;20022;-92
2024/02/05 03:53:45;;;;;;;8.00;4.25;;;7.00;99.90;;;;;;5033811;28;20053;-92
2024/02/05 03:56:13;;;;;;;5.65;3.30;;;7.10;99.90;;;;;;5019955;28;20049;-93
2024/02/05 03:58:39;;;;;;;4.82;3.42;;;7.00;99.90;;;;;;5038834;28;20100;-93
2024/02/05 04:01:05;;;;;;;11.85;3.65;;;7.00;99.90;;;;;;5037252;28;20045;-93
2024/02/05 04:03:31;;;;;;;7.20;3.53;;;7.00;99.90;;;;;;5023764;28;20466;-92
2024/02/05 04:05:57;;;;;;;9.52;3.17;;;7.00;99.90;;;;;;5038130;28;20026;-92
2024/02/05 04:08:24;;;;;;;7.47;3.72;;;7.00;99.90;;;;;;5016085;28;20022;-93
2024/02/05 04:10:51;;;;;;;6.70;3.05;;;7.00;99.90;;;;;;5033340;28;20443;-92
2024/02/05 04:13:17;;;;;;;7.13;4.28;;;6.90;99.90;;;;;;5038641;28;20044;-94
2024/02/05 04:15:43;;;;;;;8.43;4.13;;;6.90;99.90;;;;;;5019733;28;20037;-92
2024/02/05 04:18:09;;;;;;;11.48;3.40;;;6.90;99.90;;;;;;5021239;28;20800;-93
2024/02/05 04:20:35;;;;;;;8.27;3.45;;;7.00;99.90;;;;;;5038554;28;20021;-93
2024/02/05 04:23:01;;;;;;;6.20;3.20;;;7.00;99.90;;;;;;5039495;28;20028;-93
2024/02/05 04:25:26;;;;;;;6.68;3.95;;;6.90;99.90;;;;;;5041851;28;20031;-91
2024/02/05 04:27:52;;;;;;;7.68;3.67;;;7.00;99.90;;;;;;5021504;28;20048;-91
2024/02/05 04:30:26;;;;;;;7.28;3.67;;;6.90;99.90;;;;;;5020406;28;20026;-96
2024/02/05 04:32:52;;;;;;;6.63;3.88;;;7.00;99.90;;;;;;5020899;28;20021;-92
2024/02/05 04:35:18;;;;;;;8.75;4.47;;;7.00;99.90;;;;;;5038453;28;20029;-93
2024/02/05 04:37:44;;;;;;;11.70;4.35;;;7.00;99.90;;;;;;5021202;28;20040;-91
2024/02/05 04:40:09;;;;;;;8.43;3.67;;;7.00;99.90;;;;;;5038492;28;20044;-92
2024/02/05 04:42:35;;;;;;;7.70;3.85;;;7.10;99.90;;;;;;5021171;28;20032;-92
2024/02/05 04:45:01;;;;;;;7.43;3.35;;;7.10;99.90;;;;;;5040423;28;20045;-91
2024/02/05 04:47:26;;;;;;;8.07;3.08;;;7.00;99.90;;;;;;5022741;28;20471;-92
2024/02/05 04:49:52;;;;;;;7.55;4.10;;;7.10;99.90;;;;;;5037973;28;20025;-93
2024/02/05 04:52:18;;;;;;;8.82;3.83;;;7.10;99.90;;;;;;5038720;28;20109;-93
2024/02/05 04:54:44;;;;;;;5.85;2.63;;;7.20;99.90;;;;;;5021570;28;20021;-92
2024/02/05 04:57:09;;;;;;;5.20;3.35;;;7.20;99.90;;;;;;5028250;28;20030;-93
2024/02/05 04:59:35;;;;;;;6.65;3.05;;;7.20;99.90;;;;;;5039629;28;20060;-93
2024/02/05 05:02:01;;;;;;;3.50;2.78;;;7.20;99.90;;;;;;5039433;28;20030;-90
2024/02/05 05:04:27;;;;;;;5.28;2.67;;;7.20;99.90;;;;;;5020649;28;20067;-91
2024/02/05 05:06:53;;;;;;;4.72;3.30;;;7.20;99.90;;;;;;5038225;28;20021;-92
2024/02/05 05:09:18;;;;;;;4.97;2.90;;;7.20;99.90;;;;;;5037766;28;20040;-93
2024/02/05 05:11:44;;;;;;;3.50;2.38;;;7.20;99.90;;;;;;5038175;28;20022;-92
2024/02/05 05:14:09;;;;;;;5.10;2.35;;;7.30;99.90;;;;;;5020901;28;20044;-93
2024/02/05 05:16:35;;;;;;;3.72;2.25;;;7.20;99.90;;;;;;5037887;28;20056;-93
2024/02/05 05:19:01;;;;;;;5.43;2.75;;;7.30;99.90;;;;;;5036156;28;20044;-93
2024/02/05 05:21:28;;;;;;;4.15;2.03;;;7.30;99.90;;;;;;5043849;28;20471;-93
2024/02/05 05:23:53;;;;;;;6.32;2.90;;;7.40;99.90;;;;;;5038221;28;20026;-93
2024/02/05 05:26:23;;;;;;;5.43;2.35;;;7.40;99.90;;;;;;5036661;28;20017;-91
2024/02/05 05:28:51;;;;;;;6.20;2.65;;;7.40;99.90;;;;;;5036439;28;20048;-91
2024/02/05 05:31:17;;;;;;;4.35;1.85;;;7.50;99.90;;;;;;5036279;28;20017;-92
2024/02/05 05:33:44;;;;;;;5.25;2.17;;;7.50;99.90;;;;;;5035787;28;20159;-91
2024/02/05 05:36:10;;;;;;;10.02;2.83;;;7.50;99.90;;;;;;5040436;28;20041;-92
2024/02/05 05:38:36;;;;;;;3.30;1.90;;;7.50;99.90;;;;;;5039788;28;20029;-92
2024/02/05 05:41:03;;;;;;;4.97;1.92;;;7.50;99.90;;;;;;5043661;28;20048;-91
2024/02/05 05:43:29;;;;;;;2.90;2.00;;;7.60;99.90;;;;;;5039831;28;20037;-92
2024/02/05 05:45:55;;;;;;;3.47;1.67;;;7.60;99.90;;;;;;5039491;28;20030;-93
2024/02/05 05:48:21;;;;;;;4.03;1.98;;;7.50;99.90;;;;;;5023092;28;20451;-92
2024/02/05 05:50:51;;;;;;;3.45;1.77;;;7.60;99.90;;;;;;5022353;28;20041;-92
2024/02/05 05:53:17;;;;;;;2.30;1.65;;;7.70;99.90;;;;;;5040147;28;20028;-89
2024/02/05 05:55:42;;;;;;;3.25;2.53;;;7.60;99.90;;;;;;5039897;28;20045;-93
2024/02/05 05:58:08;;;;;;;2.30;1.58;;;7.70;99.90;;;;;;5035721;28;20040;-94
2024/02/05 06:00:34;;;;;;;3.00;1.58;;;7.70;99.90;;;;;;5021741;28;20053;-91
2024/02/05 06:03:00;;;;;;;2.00;1.63;;;7.70;99.90;;;;;;5022893;28;20087;-92
2024/02/05 06:05:25;;;;;;;3.28;1.17;;;7.70;99.90;;;;;;5039937;28;20025;-92
2024/02/05 06:07:51;;;;;;;2.38;1.73;;;7.70;99.90;;;;;;5040553;28;20037;-92
2024/02/05 06:10:18;;;;;;;2.30;1.75;;;7.70;99.90;;;;;;5044322;28;20037;-92
2024/02/05 06:12:44;;;;;;;2.58;1.25;;;7.70;99.90;;;;;;5041353;28;20041;-91
2024/02/05 06:15:12;;;;;;;3.13;2.85;;;7.70;99.90;;;;;;5047509;28;20033;-92
2024/02/05 06:17:38;;;;;;;3.17;2.40;;;7.70;99.90;;;;;;5040069;28;20444;-92
2024/02/05 06:20:05;;;;;;;4.88;1.20;;;7.80;99.80;;;;;;5048767;28;20476;-92
2024/02/05 06:22:33;;;;;;;2.97;1.67;;;7.70;99.70;;;;;;5032356;28;20037;-93
2024/02/05 06:24:59;;;;;;;3.42;1.95;;;7.80;99.30;;;;;;5039531;28;20271;-91
2024/02/05 06:27:24;;;;;;;3.63;2.42;;;7.80;99.20;;;;;;5046453;28;20111;-92
2024/02/05 06:29:50;;;;;;;4.70;2.45;;;7.80;99.10;;;;;;5040516;28;20024;-92
2024/02/05 06:32:16;;;;;;;1.88;1.77;;;7.80;99.10;;;;;;5039954;28;20032;-90
2024/02/05 06:34:42;;;;;;;2.42;1.73;;;7.80;99.00;;;;;;5028100;28;20277;-92
2024/02/05 06:37:08;;;;;;;2.95;1.08;;;7.80;99.10;;;;;;5031754;28;20095;-93
2024/02/05 06:39:33;;;;;;;2.42;1.50;;;7.80;99.10;;;;;;5032200;28;20037;-93
2024/02/05 06:41:59;;;;;;;2.45;1.42;;;7.80;98.80;;;;;;5016010;28;20032;-91
2024/02/05 06:44:25;;;;;;;2.15;1.52;;;7.90;98.50;;;;;;5034112;28;20043;-91
2024/02/05 06:46:51;;;;;;;2.28;1.90;;;7.90;98.20;;;;;;5035103;28;20064;-92
2024/02/05 06:49:16;;;;;;;2.85;2.15;;;8.00;98.10;;;;;;5014343;28;20547;-92
2024/02/05 06:51:42;;;;;;;3.03;1.13;;;7.90;98.30;;;;;;5029984;28;20582;-94
2024/02/05 06:54:07;;;;;;;3.88;0.95;;;7.90;98.10;;;;;;5011390;28;20033;-94
2024/02/05 06:56:33;;;;;;;3.67;1.15;;;7.90;97.80;;;;;;5031098;28;20105;-93
2024/02/05 06:58:59;;;;;;;2.97;1.20;;;8.00;98.10;;;;;;5029842;28;20052;-91
2024/02/05 07:01:28;;;;;;;3.00;1.25;;;7.90;98.10;;;;;;5032098;28;20357;-92
2024/02/05 07:03:54;;;;;;;3.00;1.10;;;7.90;97.60;;;;;;5011608;28;20176;-92
2024/02/05 07:06:20;;;;;;;1.88;1.45;;;8.00;97.40;;;;;;5029675;28;20658;-92
2024/02/05 07:08:46;;;;;;;3.03;1.55;;;8.00;97.00;;;;;;5030333;28;20089;-92
2024/02/05 07:11:12;;;;;;;1.90;1.20;;;8.00;97.30;;;;;;5035171;28;20016;-90
2024/02/05 07:13:38;;;;;;;2.35;1.00;;;8.00;97.70;;;;;;5028872;28;20112;-93
2024/02/05 07:16:06;;;;;;;25.95;2.38;;;8.00;97.30;;;;;;5013043;28;20044;-93
2024/02/05 07:18:31;;;;;;;2.22;1.63;;;8.00;97.40;;;;;;5017393;28;20080;-93
2024/02/05 07:21:04;;;;;;;2.55;0.80;;;8.00;96.70;;;;;;5017871;28;20021;-93
2024/02/05 07:23:30;;;;;;;2.50;1.20;;;8.00;96.80;;;;;;5028417;28;20137;-91
2024/02/05 07:25:56;;;;;;;2.05;1.48;;;8.00;96.50;;;;;;5036347;28;20041;-93
2024/02/05 07:28:22;;;;;;;2.20;1.77;;;8.10;96.10;;;;;;5018650;28;20021;-95
2024/02/05 07:30:47;;;;;;;2.95;2.58;;;8.00;96.70;;;;;;5028511;28;20044;-92
2024/02/05 07:33:13;;;;;;;1.73;1.20;;;8.00;96.20;;;;;;5023665;28;20402;-93
2024/02/05 07:35:39;;;;;;;4.68;1.40;;;8.10;95.60;;;;;;5040987;28;20599;-92
2024/02/05 07:38:04;;;;;;;3.20;1.42;;;8.00;96.00;;;;;;5048118;28;20108;-92
2024/02/05 07:40:30;;;;;;;3.08;1.75;;;8.00;96.70;;;;;;5052829;28;20037;-91
2024/02/05 07:42:56;;;;;;;3.22;1.20;;;7.90;97.10;;;;;;5036004;28;20057;-93
2024/02/05 07:45:21;;;;;;;2.88;2.03;;;8.00;97.00;;;;;;5034909;28;20511;-92
2024/02/05 07:47:47;;;;;;;2.97;1.23;;;8.00;96.50;;;;;;5035341;28;20025;-89
2024/02/05 07:50:12;;;;;;;2.17;1.88;;;8.00;97.00;;;;;;5034308;28;20029;-91
2024/02/05 07:52:38;;;;;;;1.70;1.60;;;8.00;97.20;;;;;;5033524;28;20075;-93
2024/02/05 07:55:04;;;;;;;2.70;1.45;;;8.00;96.30;;;;;;5034140;28;20036;-92
2024/02/05 07:57:30;;;;;;;2.58;1.40;;;8.10;95.60;;;;;;5050282;28;20121;-91
2024/02/05 07:59:57;;;;;;;2.00;1.05;;;8.20;95.20;;;;;;5039634;28;20515;-93
2024/02/05 08:02:25;;;;;;;2.85;1.55;;;8.20;94.80;;;;;;5023381;28;20487;-90
2024/02/05 08:04:51;;;;;;;5.80;1.73;;;8.10;94.40;;;;;;5035686;28;20420;-92
2024/02/05 08:07:17;;;;;;;3.42;1.63;;;8.20;95.00;;;;;;5038854;28;20013;-92
2024/02/05 08:09:43;;;;;;;2.92;1.65;;;8.20;94.40;;;;;;5038429;28;20438;-93
2024/02/05 08:12:08;;;;;;;2.10;1.17;;;8.20;94.50;;;;;;5049708;28;20122;-91
2024/02/05 08:14:34;;;;;;;4.07;1.48;;;8.30;93.70;;;;;;5035100;28;20026;-91
2024/02/05 08:17:00;;;;;;;2.47;1.10;;;8.30;93.60;;;;;;5018358;28;20116;-90
2024/02/05 08:19:25;;;;;;;4.75;1.52;;;8.30;94.00;;;;;;5038651;28;20032;-91
2024/02/05 08:21:51;;;;;;;2.70;1.42;;;8.30;93.20;;;;;;5047312;28;20106;-94
2024/02/05 08:24:18;;;;;;;3.83;1.63;;;8.30;93.60;;;;;;5042766;28;20443;-91
2024/02/05 08:26:43;;;;;;;2.88;2.50;;;8.40;93.70;;;;;;5040069;28;20070;-93
2024/02/05 08:29:09;;;;;;;2.42;1.70;;;8.40;93.70;;;;;;5051338;28;20021;-92
2024/02/05 08:31:36;;;;;;;3.85;1.50;;;8.40;92.70;;;;;;5036430;28;20076;-91
2024/02/05 08:34:02;;;;;;;4.20;1.83;;;8.40;92.60;;;;;;5042562;28;20515;-92
2024/02/05 08:36:28;;;;;;;5.22;1.45;;;8.40;92.90;;;;;;5041327;28;20025;-92
2024/02/05 08:38:54;;;;;;;2.70;1.13;;;8.50;92.80;;;;;;5041306;28;20037;-92
2024/02/05 08:41:20;;;;;;;3.25;2.40;;;8.40;92.60;;;;;;5043637;28;20613;-92
2024/02/05 08:43:46;;;;;;;2.28;1.23;;;8.50;92.30;;;;;;5047482;28;20025;-92
2024/02/05 08:46:12;;;;;;;2.83;1.45;;;8.50;92.40;;;;;;5035086;28;20039;-92
2024/02/05 08:48:39;;;;;;;3.55;0.93;;;8.50;92.00;;;;;;5034235;28;20499;-93
2024/02/05 08:51:05;;;;;;;3.42;0.93;;;8.50;92.30;;;;;;5017242;28;20021;-92
2024/02/05 08:53:31;;;;;;;4.80;1.38;;;8.50;92.30;;;;;;5042239;28;20104;-92
2024/02/05 08:55:57;;;;;;;4.60;1.17;;;8.60;91.90;;;;;;5035820;28;20014;-95
2024/02/05 08:58:22;;;;;;;2.90;1.63;;;8.60;91.00;;;;;;5016761;28;20068;-93
2024/02/05 09:00:48;;;;;;;4.47;1.38;;;8.60;91.70;;;;;;5042889;28;20053;-92
2024/02/05 09:03:16;;;;;;;3.33;2.05;;;8.60;91.50;;;;;;5036012;28;20045;-91
2024/02/05 09:05:42;;;;;;;;;;;8.60;91.20;;;;;;5040754;28;20025;-92
2024/02/05 09:08:08;;;;;;;2.13;1.25;;;8.60;90.70;;;;;;5018934;28;19935;-91
2024/02/05 09:10:35;;;;;;;2.95;1.30;;;8.60;91.20;;;;;;5038779;28;20025;-90
2024/02/05 09:13:00;;;;;;;4.00;1.83;;;8.60;91.40;;;;;;5039950;28;20052;-91
2024/02/05 09:15:26;;;;;;;1.42;1.33;;;8.60;91.00;;;;;;5040381;28;20025;-91
2024/02/05 09:17:52;;;;;;;2.30;1.60;;;8.60;91.20;;;;;;5024877;28;20396;-93
2024/02/05 09:20:18;;;;;;;3.92;1.38;;;8.70;91.30;;;;;;5043877;28;20028;-90
2024/02/05 09:22:47;;;;;;;3.05;1.35;;;8.70;91.20;;;;;;5040352;28;20032;-92
2024/02/05 09:25:13;;;;;;;4.28;1.65;;;8.70;90.70;;;;;;5038135;28;20032;-92
2024/02/05 09:27:38;;;;;;;2.08;1.33;;;8.80;90.80;;;;;;5038261;28;20033;-92
2024/02/05 09:30:04;;;;;;;4.20;2.03;;;8.80;90.80;;;;;;5037381;28;20527;-93
2024/02/05 09:32:30;;;;;;;2.55;1.08;;;8.70;90.90;;;;;;5026407;28;20057;-91
2024/02/05 09:34:58;;;;;;;2.55;1.33;;;8.70;90.90;;;;;;5014534;28;20018;-92
2024/02/05 09:37:24;;;;;;;;;;;8.80;90.70;;;;;;5044929;28;20026;-93
2024/02/05 09:39:49;;;;;;;4.40;2.20;;;8.80;91.40;;;;;;5018012;28;19909;-92
2024/02/05 09:42:15;;;;;;;3.05;1.80;;;8.90;90.60;;;;;;5039601;28;20031;-91
2024/02/05 09:44:44;;;;;;;4.38;2.35;;;8.80;91.10;;;;;;5036565;28;20082;-91
2024/02/05 09:47:12;;;;;;;3.15;1.42;;;8.80;90.50;;;;;;5034696;28;20030;-92
2024/02/05 09:49:39;;;;;;;3.00;1.33;;;8.80;90.30;;;;;;5034137;28;20388;-90
2024/02/05 09:52:08;;;;;;;4.70;1.83;;;8.80;91.10;;;;;;5019275;28;20036;-92
2024/02/05 09:54:40;;;;;;;3.28;1.38;;;8.80;90.90;;;;;;5017566;28;20026;-91
2024/02/05 09:57:11;;;;;;;3.08;1.90;;;8.80;90.60;;;;;;5037126;28;20037;-92
2024/02/05 09:59:39;;;;;;;4.03;1.63;;;8.80;90.60;;;;;;5036420;28;20053;-92
2024/02/05 10:02:06;;;;;;;3.10;1.40;;;8.80;91.30;;;;;;5018522;28;20025;-91
2024/02/05 10:04:43;;;;;;;3.53;1.58;;;8.90;91.30;;;;;;5044091;28;20049;-92
2024/02/05 10:07:16;;;;;;;3.80;1.63;;;9.00;91.00;;;;;;5044030;28;20036;-92
2024/02/05 10:09:42;;;;;;;3.97;1.50;;;8.90;90.10;;;;;;5040926;28;20021;-91
2024/02/05 10:12:11;;;;;;;2.90;1.33;;;8.90;90.20;;;;;;5036260;28;20018;-91
2024/02/05 10:14:37;;;;;;;3.90;1.80;;;9.00;90.40;;;;;;5023222;28;20083;-90
2024/02/05 10:17:03;;;;;;;2.35;1.10;;;9.00;90.30;;;;;;5036363;28;20108;-92
2024/02/05 10:19:30;;;;;;;3.88;2.17;;;9.00;89.80;;;;;;5017929;28;20126;-92
2024/02/05 10:21:57;;;;;;;4.82;3.10;;;9.10;88.80;;;;;;5038189;28;20033;-92
2024/02/05 10:24:23;;;;;;;5.95;1.88;;;9.00;90.20;;;;;;5017775;28;20045;-92
2024/02/05 10:26:49;;;;;;;5.82;1.83;;;9.10;90.00;;;;;;5021075;28;20029;-92
2024/02/05 10:29:15;;;;;;;7.13;2.20;;;9.00;90.10;;;;;;5041763;28;20018;-91
2024/02/05 10:31:49;;;;;;;6.13;2.28;;;9.10;90.80;;;;;;5039136;28;20031;-91
2024/02/05 10:34:22;;;;;;;4.43;2.22;;;9.20;90.50;;;;;;5025220;28;20464;-90
2024/02/05 10:36:47;;;;;;;3.75;1.63;;;9.30;90.20;;;;;;5023916;28;20025;-89
2024/02/05 10:39:23;;;;;;;5.95;1.40;;;9.30;88.80;;;;;;5039627;28;20029;-91
2024/02/05 10:41:49;;;;;;;3.58;2.35;;;9.30;88.80;;;;;;5036643;28;20013;-91
2024/02/05 10:44:16;;;;;;;3.58;2.03;;;9.30;89.40;;;;;;5038447;28;20060;-91
2024/02/05 10:46:42;;;;;;;5.22;1.30;;;9.40;88.50;;;;;;5047370;28;20029;-92
2024/02/05 10:49:08;;;;;;;8.00;2.05;;;9.30;89.90;;;;;;5046017;28;20030;-93
2024/02/05 10:51:39;;;;;;;3.85;2.05;;;9.40;89.00;;;;;;5038565;28;20032;-92
2024/02/05 10:54:05;;;;;;;3.35;1.98;;;9.50;89.00;;;;;;5006296;28;20056;-91
2024/02/05 10:56:31;;;;;;;4.88;2.10;;;9.60;87.20;;;;;;5039730;28;20164;-93
2024/02/05 10:58:59;;;;;;;3.40;2.25;;;9.60;88.10;;;;;;5043996;28;20052;-92
2024/02/05 11:01:42;;;;;;;5.00;1.45;;;9.70;87.40;;;;;;5050717;28;20021;-91
2024/02/05 11:04:09;;;;;;;5.43;1.70;;;9.60;88.10;;;;;;5025508;28;20025;-93
2024/02/05 11:06:45;;;;;;;6.80;1.85;;;9.70;87.50;;;;;;5039067;28;20025;-92
2024/02/05 11:09:13;;;;;;;5.80;1.67;;;9.60;86.90;;;;;;5020448;28;20172;-91
2024/02/05 11:11:43;;;;;;;5.43;1.95;;;9.70;87.30;;;;;;5035244;28;20029;-92
2024/02/05 11:14:11;;;;;;;5.85;1.58;;;9.70;87.00;;;;;;5041901;28;20021;-90
2024/02/05 11:16:39;;;;;;;6.20;2.20;;;9.80;87.20;;;;;;5026500;28;20141;-91
2024/02/05 11:19:09;;;;;;;8.13;2.10;;;9.80;87.90;;;;;;5024310;28;20021;-89
2024/02/05 11:21:42;;;;;;;7.78;2.15;;;9.80;85.80;;;;;;5059293;28;20100;-91
2024/02/05 11:24:10;;;;;;;9.07;2.55;;;9.90;84.90;;;;;;5042327;28;20064;-91
2024/02/05 11:26:38;;;;;;;7.32;2.08;;;9.90;85.30;;;;;;5037890;28;20085;-92
2024/02/05 11:29:04;;;;;;;5.13;1.92;;;9.80;85.40;;;;;;5027030;28;20048;-92
2024/02/05 11:31:30;;;;;;;5.20;1.80;;;9.80;86.70;;;;;;5037713;28;20030;-92
2024/02/05 11:34:03;;;;;;;4.10;1.90;;;10.10;85.80;;;;;;5038963;28;20074;-91
2024/02/05 11:36:29;;;;;;;7.68;1.90;;;10.00;86.20;;;;;;5029278;28;20040;-92
2024/02/05 11:39:07;;;;;;;5.22;2.63;;;10.10;85.40;;;;;;5020874;28;20480;-93
2024/02/05 11:41:33;;;;;;;4.28;2.83;;;10.10;84.60;;;;;;5031970;28;20472;-92
2024/02/05 11:44:03;;;;;;;3.83;2.65;;;9.90;87.60;;;;;;5037141;28;20026;-93
2024/02/05 11:46:28;;;;;;;5.70;1.83;;;10.20;86.50;;;;;;5030391;28;20021;-90
2024/02/05 11:48:54;;;;;;;7.47;1.55;;;10.00;85.70;;;;;;5036898;28;20108;-93
2024/02/05 11:51:20;;;;;;;6.03;3.65;;;9.90;85.00;;;;;;5037147;28;20041;-91
2024/02/05 11:53:47;;;;;;;6.07;1.90;;;9.90;87.10;;;;;;5027152;28;20399;-92
2024/02/05 11:56:13;;;;;;;4.00;1.65;;;9.90;86.30;;;;;;5020085;28;20051;-92
2024/02/05 11:58:40;;;;;;;7.22;2.10;;;9.90;86.10;;;;;;5042219;28;20112;-93
2024/02/05 12:01:09;;;;;;;7.72;2.30;;;9.90;85.60;;;;;;5036573;28;20040;-92
2024/02/05 12:03:35;;;;;;;5.80;2.25;;;9.80;86.60;;;;;;5047869;28;20032;-93
2024/02/05 12:06:03;;;;;;;5.75;2.40;;;9.90;85.90;;;;;;5047948;28;20082;-92
2024/02/05 12:08:29;;;;;;;3.60;1.70;;;10.10;86.10;;;;;;5026355;28;20083;-90
2024/02/05 12:10:55;;;;;;;6.47;2.67;;;10.20;84.70;;;;;;5026232;28;20033;-90
2024/02/05 12:13:21;;;;;;;6.95;1.65;;;10.10;85.30;;;;;;5044177;28;20036;-91
2024/02/05 12:15:47;;;;;;;5.90;2.00;;;10.00;84.40;;;;;;5039345;28;20079;-91
2024/02/05 12:18:13;;;;;;;6.88;2.67;;;10.00;83.50;;;;;;5051591;28;20017;-90
2024/02/05 12:20:39;;;;;;;8.85;2.72;;;10.00;85.70;;;;;;5037410;28;20029;-91
2024/02/05 12:23:05;;;;;;;3.72;1.88;;;10.10;85.40;;;;;;5041306;28;20091;-92
2024/02/05 12:25:32;;;;;;;7.72;2.15;;;10.10;85.70;;;;;;5041866;28;20053;-92
2024/02/05 12:27:58;;;;;;;5.80;1.92;;;10.00;84.60;;;;;;5030466;28;20018;-92
2024/02/05 12:30:23;;;;;;;7.60;4.55;;;9.80;85.90;;;;;;5037155;28;20026;-91
2024/02/05 12:32:53;;;;;;;13.13;2.45;;;9.90;86.50;;;;;;5037753;28;20488;-92
2024/02/05 12:35:20;;;;;;;4.55;1.98;;;9.90;85.90;;;;;;5035422;28;20022;-91
2024/02/05 12:37:48;;;;;;;5.80;2.25;;;9.90;86.00;;;;;;5021043;28;20041;-91
2024/02/05 12:40:15;;;;;;;5.35;2.78;;;9.80;86.20;;;;;;5036877;28;20029;-91
2024/02/05 12:42:40;;;;;;;6.25;3.00;;;10.00;86.00;;;;;;5031215;28;20032;-92
2024/02/05 12:45:07;;;;;;;6.38;2.70;;;9.80;85.30;;;;;;5019221;28;20037;-93
2024/02/05 12:47:34;;;;;;;8.68;3.38;;;9.90;85.90;;;;;;5021144;28;20092;-91
2024/02/05 12:50:01;;;;;;;5.78;2.38;;;10.00;86.20;;;;;;4999502;28;20960;-92
2024/02/05 12:52:26;;;;;;;6.47;3.20;;;10.10;85.70;;;;;;5014371;28;20599;-91
2024/02/05 12:54:52;;;;;;;5.70;2.28;;;10.10;84.80;;;;;;5004986;28;20032;-94